sensor_id;sensor_type;location;lat;lon;timestamp;pressure;altitude;pressure_sealevel;temperature;humidity
29935;BME280;19905;53.370;-6.314;2023-02-14T00:01:55;102141.94;;;6.79;100.00
29935;BME280;19905;53.370;-6.314;2023-02-14T00:04:25;102154.25;;;6.77;100.00
29935;BME280;19905;53.370;-6.314;2023-02-14T00:06:53;102152.47;;;6.78;100.00
29935;BME280;19905;53.370;-6.314;2023-02-14T00:09:22;102143.97;;;6.71;100.00
29935;BME280;19905;53.370;-6.314;2023-02-14T00:11:51;102143.22;;;6.68;100.00
29935;BME280;19905;53.370;-6.314;2023-02-14T00:14:19;102152.97;;;6.64;100.00
29935;BME280;19905;53.370;-6.314;2023-02-14T00:17:05;102159.22;;;6.61;100.00
29935;BME280;19905;53.370;-6.314;2023-02-14T00:19:35;102141.06;;;6.55;100.00
29935;BME280;19905;53.370;-6.314;2023-02-14T00:22:04;102142.13;;;6.50;100.00
29935;BME280;19905;53.370;-6.314;2023-02-14T00:24:32;102137.03;;;6.47;100.00
29935;BME280;19905;53.370;-6.314;2023-02-14T00:27:01;102129.34;;;6.41;100.00
29935;BME280;19905;53.370;-6.314;2023-02-14T00:29:30;102123.22;;;6.42;100.00
29935;BME280;19905;53.370;-6.314;2023-02-14T00:32:00;102127.41;;;6.46;100.00
29935;BME280;19905;53.370;-6.314;2023-02-14T00:34:29;102131.88;;;6.44;100.00
29935;BME280;19905;53.370;-6.314;2023-02-14T00:37:01;102130.84;;;6.48;100.00
29935;BME280;19905;53.370;-6.314;2023-02-14T00:39:30;102132.66;;;6.46;100.00
29935;BME280;19905;53.370;-6.314;2023-02-14T00:41:58;102140.59;;;6.44;100.00
29935;BME280;19905;53.370;-6.314;2023-02-14T00:44:26;102143.38;;;6.40;100.00
29935;BME280;19905;53.370;-6.314;2023-02-14T00:46:55;102129.41;;;6.39;100.00
29935;BME280;19905;53.370;-6.314;2023-02-14T00:49:23;102113.72;;;6.38;100.00
29935;BME280;19905;53.370;-6.314;2023-02-14T00:51:52;102116.56;;;6.31;100.00
29935;BME280;19905;53.370;-6.314;2023-02-14T00:54:26;102121.50;;;6.16;100.00
29935;BME280;19905;53.370;-6.314;2023-02-14T00:56:55;102118.78;;;6.19;100.00
29935;BME280;19905;53.370;-6.314;2023-02-14T00:59:24;102128.22;;;6.23;100.00
29935;BME280;19905;53.370;-6.314;2023-02-14T01:01:52;102125.28;;;6.32;100.00
29935;BME280;19905;53.370;-6.314;2023-02-14T01:04:21;102117.66;;;6.49;100.00
29935;BME280;19905;53.370;-6.314;2023-02-14T01:06:50;102131.13;;;6.63;100.00
29935;BME280;19905;53.370;-6.314;2023-02-14T01:09:18;102129.72;;;6.78;100.00
29935;BME280;19905;53.370;-6.314;2023-02-14T01:11:48;102118.72;;;6.91;100.00
29935;BME280;19905;53.370;-6.314;2023-02-14T01:14:17;102125.16;;;7.05;100.00
29935;BME280;19905;53.370;-6.314;2023-02-14T01:16:46;102116.31;;;7.08;100.00
29935;BME280;19905;53.370;-6.314;2023-02-14T01:19:14;102103.84;;;7.13;100.00
29935;BME280;19905;53.370;-6.314;2023-02-14T01:21:43;102101.16;;;7.14;100.00
29935;BME280;19905;53.370;-6.314;2023-02-14T01:24:12;102096.69;;;7.17;100.00
29935;BME280;19905;53.370;-6.314;2023-02-14T01:26:40;102100.28;;;7.14;100.00
29935;BME280;19905;53.370;-6.314;2023-02-14T01:29:10;102077.56;;;7.13;100.00
29935;BME280;19905;53.370;-6.314;2023-02-14T01:31:39;102093.22;;;7.16;100.00
29935;BME280;19905;53.370;-6.314;2023-02-14T01:34:08;102085.06;;;7.22;100.00
29935;BME280;19905;53.370;-6.314;2023-02-14T01:36:37;102076.34;;;7.22;100.00
29935;BME280;19905;53.370;-6.314;2023-02-14T01:39:09;102081.59;;;7.22;100.00
29935;BME280;19905;53.370;-6.314;2023-02-14T01:41:42;102083.31;;;7.23;100.00
29935;BME280;19905;53.370;-6.314;2023-02-14T01:47:21;102089.19;;;7.29;100.00
29935;BME280;19905;53.370;-6.314;2023-02-14T01:49:54;102083.06;;;7.29;100.00
29935;BME280;19905;53.370;-6.314;2023-02-14T01:52:27;102075.03;;;7.32;100.00
29935;BME280;19905;53.370;-6.314;2023-02-14T01:55:00;102076.91;;;7.30;100.00
29935;BME280;19905;53.370;-6.314;2023-02-14T01:57:33;102070.91;;;7.26;100.00
29935;BME280;19905;53.370;-6.314;2023-02-14T02:00:05;102065.75;;;7.23;100.00
29935;BME280;19905;53.370;-6.314;2023-02-14T02:02:54;102066.78;;;7.19;100.00
29935;BME280;19905;53.370;-6.314;2023-02-14T02:05:23;102064.34;;;7.14;100.00
29935;BME280;19905;53.370;-6.314;2023-02-14T02:07:54;102062.66;;;7.13;100.00
29935;BME280;19905;53.370;-6.314;2023-02-14T02:10:25;102060.09;;;7.12;100.00
29935;BME280;19905;53.370;-6.314;2023-02-14T02:12:54;102067.06;;;7.13;100.00
29935;BME280;19905;53.370;-6.314;2023-02-14T02:15:25;102055.75;;;7.11;100.00
29935;BME280;19905;53.370;-6.314;2023-02-14T02:18:02;102066.97;;;7.14;100.00
29935;BME280;19905;53.370;-6.314;2023-02-14T02:24:13;102062.91;;;7.07;100.00
29935;BME280;19905;53.370;-6.314;2023-02-14T02:33:18;102044.88;;;6.98;100.00
29935;BME280;19905;53.370;-6.314;2023-02-14T02:36:17;102049.28;;;6.98;100.00
29935;BME280;19905;53.370;-6.314;2023-02-14T02:39:05;102057.22;;;6.96;100.00
29935;BME280;19905;53.370;-6.314;2023-02-14T02:41:47;102049.22;;;6.99;100.00
29935;BME280;19905;53.370;-6.314;2023-02-14T02:44:23;102046.34;;;7.05;100.00
29935;BME280;19905;53.370;-6.314;2023-02-14T02:47:03;102037.47;;;7.08;100.00
29935;BME280;19905;53.370;-6.314;2023-02-14T02:49:40;102035.72;;;7.08;100.00
29935;BME280;19905;53.370;-6.314;2023-02-14T02:52:46;102040.78;;;7.13;100.00
29935;BME280;19905;53.370;-6.314;2023-02-14T02:55:40;102040.00;;;7.11;100.00
29935;BME280;19905;53.370;-6.314;2023-02-14T02:58:31;102039.84;;;7.14;100.00
29935;BME280;19905;53.370;-6.314;2023-02-14T03:01:07;102042.00;;;7.26;100.00
29935;BME280;19905;53.370;-6.314;2023-02-14T03:03:38;102046.97;;;7.32;100.00
29935;BME280;19905;53.370;-6.314;2023-02-14T03:06:25;102036.16;;;7.40;100.00
29935;BME280;19905;53.370;-6.314;2023-02-14T03:08:55;102036.75;;;7.47;100.00
29935;BME280;19905;53.370;-6.314;2023-02-14T03:11:25;102038.47;;;7.48;100.00
29935;BME280;19905;53.370;-6.314;2023-02-14T03:14:09;102043.66;;;7.49;100.00
29935;BME280;19905;53.370;-6.314;2023-02-14T03:16:48;102047.25;;;7.47;100.00
29935;BME280;19905;53.370;-6.314;2023-02-14T03:19:47;102038.59;;;7.45;100.00
29935;BME280;19905;53.370;-6.314;2023-02-14T03:22:44;102046.75;;;7.38;100.00
29935;BME280;19905;53.370;-6.314;2023-02-14T03:25:26;102039.91;;;7.34;100.00
29935;BME280;19905;53.370;-6.314;2023-02-14T03:28:03;102026.88;;;7.31;100.00
29935;BME280;19905;53.370;-6.314;2023-02-14T03:30:44;102033.06;;;7.30;100.00
29935;BME280;19905;53.370;-6.314;2023-02-14T03:33:19;102040.09;;;7.30;100.00
29935;BME280;19905;53.370;-6.314;2023-02-14T03:35:55;102022.47;;;7.32;100.00
29935;BME280;19905;53.370;-6.314;2023-02-14T03:38:32;102016.97;;;7.38;100.00
29935;BME280;19905;53.370;-6.314;2023-02-14T03:41:06;102020.50;;;7.37;100.00
29935;BME280;19905;53.370;-6.314;2023-02-14T03:43:38;102010.72;;;7.41;100.00
29935;BME280;19905;53.370;-6.314;2023-02-14T03:46:14;102014.09;;;7.44;100.00
29935;BME280;19905;53.370;-6.314;2023-02-14T03:48:46;102016.84;;;7.41;100.00
29935;BME280;19905;53.370;-6.314;2023-02-14T03:51:19;102009.88;;;7.40;100.00
29935;BME280;19905;53.370;-6.314;2023-02-14T03:53:53;102011.56;;;7.41;100.00
29935;BME280;19905;53.370;-6.314;2023-02-14T03:56:30;102001.13;;;7.39;100.00
29935;BME280;19905;53.370;-6.314;2023-02-14T03:59:05;102015.88;;;7.44;100.00
29935;BME280;19905;53.370;-6.314;2023-02-14T04:01:41;102008.81;;;7.44;100.00
29935;BME280;19905;53.370;-6.314;2023-02-14T04:04:13;102010.53;;;7.45;100.00
29935;BME280;19905;53.370;-6.314;2023-02-14T04:06:45;102005.16;;;7.48;100.00
29935;BME280;19905;53.370;-6.314;2023-02-14T04:09:13;102003.06;;;7.56;100.00
29935;BME280;19905;53.370;-6.314;2023-02-14T04:11:44;101990.47;;;7.63;100.00
29935;BME280;19905;53.370;-6.314;2023-02-14T04:14:13;101994.78;;;7.66;100.00
29935;BME280;19905;53.370;-6.314;2023-02-14T04:16:41;101989.34;;;7.69;100.00
29935;BME280;19905;53.370;-6.314;2023-02-14T04:19:24;101976.06;;;7.72;100.00
29935;BME280;19905;53.370;-6.314;2023-02-14T04:21:52;101991.72;;;7.75;100.00
29935;BME280;19905;53.370;-6.314;2023-02-14T04:24:21;101979.34;;;7.77;100.00
29935;BME280;19905;53.370;-6.314;2023-02-14T04:26:51;101975.66;;;7.81;100.00
29935;BME280;19905;53.370;-6.314;2023-02-14T04:40:12;101972.72;;;7.88;100.00
29935;BME280;19905;53.370;-6.314;2023-02-14T04:42:43;101976.09;;;7.90;100.00
29935;BME280;19905;53.370;-6.314;2023-02-14T04:45:11;101965.88;;;7.84;100.00
29935;BME280;19905;53.370;-6.314;2023-02-14T04:47:40;101988.81;;;7.81;100.00
29935;BME280;19905;53.370;-6.314;2023-02-14T04:50:09;101971.34;;;7.80;100.00
29935;BME280;19905;53.370;-6.314;2023-02-14T04:52:38;101964.22;;;7.82;100.00
29935;BME280;19905;53.370;-6.314;2023-02-14T04:55:08;101971.25;;;7.81;100.00
29935;BME280;19905;53.370;-6.314;2023-02-14T04:57:38;101955.56;;;7.80;100.00
29935;BME280;19905;53.370;-6.314;2023-02-14T05:00:08;101965.16;;;7.81;100.00
29935;BME280;19905;53.370;-6.314;2023-02-14T05:02:37;101973.13;;;7.79;100.00
29935;BME280;19905;53.370;-6.314;2023-02-14T05:05:06;101971.53;;;7.75;100.00
29935;BME280;19905;53.370;-6.314;2023-02-14T05:07:34;101964.72;;;7.71;100.00
29935;BME280;19905;53.370;-6.314;2023-02-14T05:10:04;101970.09;;;7.68;100.00
29935;BME280;19905;53.370;-6.314;2023-02-14T05:12:33;101971.09;;;7.66;100.00
29935;BME280;19905;53.370;-6.314;2023-02-14T05:15:04;101959.78;;;7.63;100.00
29935;BME280;19905;53.370;-6.314;2023-02-14T05:17:32;101970.09;;;7.68;100.00
29935;BME280;19905;53.370;-6.314;2023-02-14T05:20:03;101973.38;;;7.73;100.00
29935;BME280;19905;53.370;-6.314;2023-02-14T05:22:32;101965.44;;;7.75;100.00
29935;BME280;19905;53.370;-6.314;2023-02-14T05:25:00;101974.63;;;7.85;100.00
29935;BME280;19905;53.370;-6.314;2023-02-14T05:27:29;101969.34;;;7.85;100.00
29935;BME280;19905;53.370;-6.314;2023-02-14T05:29:58;101976.19;;;7.89;100.00
29935;BME280;19905;53.370;-6.314;2023-02-14T05:32:28;101965.59;;;7.90;100.00
29935;BME280;19905;53.370;-6.314;2023-02-14T05:34:56;101969.72;;;7.96;100.00
29935;BME280;19905;53.370;-6.314;2023-02-14T05:37:27;101958.22;;;7.99;100.00
29935;BME280;19905;53.370;-6.314;2023-02-14T05:39:55;101966.88;;;8.01;100.00
29935;BME280;19905;53.370;-6.314;2023-02-14T05:42:24;101964.97;;;8.04;100.00
29935;BME280;19905;53.370;-6.314;2023-02-14T05:44:53;101972.56;;;8.10;100.00
29935;BME280;19905;53.370;-6.314;2023-02-14T05:47:22;101964.53;;;8.13;100.00
29935;BME280;19905;53.370;-6.314;2023-02-14T05:49:52;101972.22;;;8.18;100.00
29935;BME280;19905;53.370;-6.314;2023-02-14T05:52:20;101969.59;;;8.18;100.00
29935;BME280;19905;53.370;-6.314;2023-02-14T05:54:49;101970.38;;;8.20;100.00
29935;BME280;19905;53.370;-6.314;2023-02-14T05:57:18;101964.03;;;8.24;100.00
29935;BME280;19905;53.370;-6.314;2023-02-14T05:59:46;101969.16;;;8.27;100.00
29935;BME280;19905;53.370;-6.314;2023-02-14T06:02:15;101972.44;;;8.32;100.00
29935;BME280;19905;53.370;-6.314;2023-02-14T06:04:44;101962.69;;;8.34;100.00
29935;BME280;19905;53.370;-6.314;2023-02-14T06:07:14;101965.19;;;8.37;100.00
29935;BME280;19905;53.370;-6.314;2023-02-14T06:09:43;101967.78;;;8.39;100.00
29935;BME280;19905;53.370;-6.314;2023-02-14T06:12:11;101955.38;;;8.41;100.00
29935;BME280;19905;53.370;-6.314;2023-02-14T06:14:40;101962.34;;;8.42;100.00
29935;BME280;19905;53.370;-6.314;2023-02-14T06:17:09;101955.25;;;8.44;100.00
29935;BME280;19905;53.370;-6.314;2023-02-14T06:19:38;101957.81;;;8.46;100.00
29935;BME280;19905;53.370;-6.314;2023-02-14T06:22:06;101956.88;;;8.47;100.00
29935;BME280;19905;53.370;-6.314;2023-02-14T06:24:36;101960.22;;;8.50;100.00
29935;BME280;19905;53.370;-6.314;2023-02-14T06:27:05;101963.78;;;8.49;100.00
29935;BME280;19905;53.370;-6.314;2023-02-14T06:29:36;101963.69;;;8.51;100.00
29935;BME280;19905;53.370;-6.314;2023-02-14T06:32:04;101967.97;;;8.53;100.00
29935;BME280;19905;53.370;-6.314;2023-02-14T06:34:33;101963.56;;;8.54;100.00
29935;BME280;19905;53.370;-6.314;2023-02-14T06:37:02;101966.13;;;8.55;100.00
29935;BME280;19905;53.370;-6.314;2023-02-14T06:39:30;101963.47;;;8.55;100.00
29935;BME280;19905;53.370;-6.314;2023-02-14T06:42:00;101966.06;;;8.57;100.00
29935;BME280;19905;53.370;-6.314;2023-02-14T06:44:29;101960.84;;;8.55;100.00
29935;BME280;19905;53.370;-6.314;2023-02-14T06:46:58;101965.41;;;8.52;100.00
29935;BME280;19905;53.370;-6.314;2023-02-14T06:49:27;101972.44;;;8.51;100.00
29935;BME280;19905;53.370;-6.314;2023-02-14T06:51:55;101972.41;;;8.53;100.00
29935;BME280;19905;53.370;-6.314;2023-02-14T06:54:24;101969.81;;;8.51;100.00
29935;BME280;19905;53.370;-6.314;2023-02-14T06:56:53;101965.41;;;8.52;100.00
29935;BME280;19905;53.370;-6.314;2023-02-14T06:59:23;101971.47;;;8.54;100.00
29935;BME280;19905;53.370;-6.314;2023-02-14T07:01:51;101966.28;;;8.52;100.00
29935;BME280;19905;53.370;-6.314;2023-02-14T07:04:20;101967.13;;;8.53;100.00
29935;BME280;19905;53.370;-6.314;2023-02-14T07:06:48;101964.50;;;8.53;100.00
29935;BME280;19905;53.370;-6.314;2023-02-14T07:09:17;101960.94;;;8.54;100.00
29935;BME280;19905;53.370;-6.314;2023-02-14T07:11:46;101966.91;;;8.57;100.00
29935;BME280;19905;53.370;-6.314;2023-02-14T07:14:14;101967.75;;;8.58;100.00
29935;BME280;19905;53.370;-6.314;2023-02-14T07:16:44;101982.50;;;8.62;100.00
29935;BME280;19905;53.370;-6.314;2023-02-14T07:19:13;101977.00;;;8.67;100.00
29935;BME280;19905;53.370;-6.314;2023-02-14T07:21:41;101984.75;;;8.70;100.00
29935;BME280;19905;53.370;-6.314;2023-02-14T07:24:10;101982.94;;;8.70;100.00
29935;BME280;19905;53.370;-6.314;2023-02-14T07:26:39;101989.16;;;8.69;100.00
29935;BME280;19905;53.370;-6.314;2023-02-14T07:29:07;101983.84;;;8.71;100.00
29935;BME280;19905;53.370;-6.314;2023-02-14T07:31:35;101990.81;;;8.72;100.00
29935;BME280;19905;53.370;-6.314;2023-02-14T07:34:05;101987.94;;;8.76;100.00
29935;BME280;19905;53.370;-6.314;2023-02-14T07:36:36;101995.47;;;8.84;100.00
29935;BME280;19905;53.370;-6.314;2023-02-14T07:39:04;102002.28;;;8.88;100.00
29935;BME280;19905;53.370;-6.314;2023-02-14T07:41:33;102004.56;;;8.96;100.00
29935;BME280;19905;53.370;-6.314;2023-02-14T07:44:01;102005.50;;;8.95;100.00
29935;BME280;19905;53.370;-6.314;2023-02-14T07:46:30;102002.88;;;8.95;100.00
29935;BME280;19905;53.370;-6.314;2023-02-14T07:49:00;102005.50;;;8.95;100.00
29935;BME280;19905;53.370;-6.314;2023-02-14T07:51:30;101999.38;;;8.94;100.00
29935;BME280;19905;53.370;-6.314;2023-02-14T07:53:59;101998.34;;;8.97;100.00
29935;BME280;19905;53.370;-6.314;2023-02-14T07:56:27;101997.28;;;9.01;100.00
29935;BME280;19905;53.370;-6.314;2023-02-14T07:58:56;102010.31;;;9.04;100.00
29935;BME280;19905;53.370;-6.314;2023-02-14T08:01:24;102004.09;;;9.05;100.00
29935;BME280;19905;53.370;-6.314;2023-02-14T08:03:53;102006.53;;;9.09;100.00
29935;BME280;19905;53.370;-6.314;2023-02-14T08:06:22;102014.09;;;9.15;100.00
29935;BME280;19905;53.370;-6.314;2023-02-14T08:08:53;102013.88;;;9.20;100.00
29935;BME280;19905;53.370;-6.314;2023-02-14T08:11:21;102024.19;;;9.25;100.00
29935;BME280;19905;53.370;-6.314;2023-02-14T08:14:07;102021.34;;;9.29;100.00
29935;BME280;19905;53.370;-6.314;2023-02-14T08:16:36;102033.53;;;9.32;100.00
29935;BME280;19905;53.370;-6.314;2023-02-14T08:19:05;102028.97;;;9.35;100.00
29935;BME280;19905;53.370;-6.314;2023-02-14T08:21:33;102025.25;;;9.39;100.00
29935;BME280;19905;53.370;-6.314;2023-02-14T08:24:05;102024.06;;;9.45;100.00
29935;BME280;19905;53.370;-6.314;2023-02-14T08:26:33;102010.72;;;9.48;100.00
29935;BME280;19905;53.370;-6.314;2023-02-14T08:29:02;102006.22;;;9.50;100.00
29935;BME280;19905;53.370;-6.314;2023-02-14T08:31:31;102014.13;;;9.50;100.00
29935;BME280;19905;53.370;-6.314;2023-02-14T08:34:03;102002.56;;;9.53;100.00
29935;BME280;19905;53.370;-6.314;2023-02-14T08:36:32;102000.72;;;9.55;100.00
29935;BME280;19905;53.370;-6.314;2023-02-14T08:39:02;102007.31;;;9.63;100.00
29935;BME280;19905;53.370;-6.314;2023-02-14T08:41:33;102004.34;;;9.70;100.00
29935;BME280;19905;53.370;-6.314;2023-02-14T08:44:02;102011.06;;;9.75;100.00
29935;BME280;19905;53.370;-6.314;2023-02-14T08:46:31;102005.66;;;9.78;100.00
29935;BME280;19905;53.370;-6.314;2023-02-14T08:48:59;102002.16;;;9.78;100.00
29935;BME280;19905;53.370;-6.314;2023-02-14T08:51:28;102010.84;;;9.80;100.00
29935;BME280;19905;53.370;-6.314;2023-02-14T08:53:57;102015.88;;;9.84;100.00
29935;BME280;19905;53.370;-6.314;2023-02-14T08:56:25;102013.00;;;9.89;100.00
29935;BME280;19905;53.370;-6.314;2023-02-14T08:58:55;102014.78;;;9.88;100.00
29935;BME280;19905;53.370;-6.314;2023-02-14T09:01:24;102007.03;;;9.85;100.00
29935;BME280;19905;53.370;-6.314;2023-02-14T09:03:52;102014.41;;;9.79;100.00
29935;BME280;19905;53.370;-6.314;2023-02-14T09:06:21;102013.81;;;9.74;100.00
29935;BME280;19905;53.370;-6.314;2023-02-14T09:08:50;102009.63;;;9.70;100.00
29935;BME280;19905;53.370;-6.314;2023-02-14T09:11:22;102010.41;;;9.72;100.00
29935;BME280;19905;53.370;-6.314;2023-02-14T09:13:52;102012.88;;;9.75;100.00
29935;BME280;19905;53.370;-6.314;2023-02-14T09:16:23;102003.84;;;9.79;100.00
29935;BME280;19905;53.370;-6.314;2023-02-14T09:18:52;102009.69;;;9.85;100.00
29935;BME280;19905;53.370;-6.314;2023-02-14T09:21:24;102018.97;;;9.92;100.00
29935;BME280;19905;53.370;-6.314;2023-02-14T09:23:53;102017.88;;;9.97;100.00
29935;BME280;19905;53.370;-6.314;2023-02-14T09:26:22;102015.16;;;9.98;100.00
29935;BME280;19905;53.370;-6.314;2023-02-14T09:28:50;102015.75;;;10.03;100.00
29935;BME280;19905;53.370;-6.314;2023-02-14T09:31:23;102017.22;;;10.09;100.00
29935;BME280;19905;53.370;-6.314;2023-02-14T09:33:52;102014.41;;;10.12;100.00
29935;BME280;19905;53.370;-6.314;2023-02-14T09:36:21;102014.25;;;10.15;100.00
29935;BME280;19905;53.370;-6.314;2023-02-14T09:38:49;102006.34;;;10.15;100.00
29935;BME280;19905;53.370;-6.314;2023-02-14T09:41:38;102019.44;;;10.16;100.00
29935;BME280;19905;53.370;-6.314;2023-02-14T09:44:21;102016.50;;;10.23;100.00
29935;BME280;19905;53.370;-6.314;2023-02-14T09:46:58;102018.81;;;10.29;100.00
29935;BME280;19905;53.370;-6.314;2023-02-14T09:49:31;102016.09;;;10.30;100.00
29935;BME280;19905;53.370;-6.314;2023-02-14T09:52:02;102006.13;;;10.35;100.00
29935;BME280;19905;53.370;-6.314;2023-02-14T09:54:33;102010.06;;;10.44;100.00
29935;BME280;19905;53.370;-6.314;2023-02-14T09:57:06;102002.81;;;10.48;100.00
29935;BME280;19905;53.370;-6.314;2023-02-14T09:59:45;101991.16;;;10.52;100.00
29935;BME280;19905;53.370;-6.314;2023-02-14T10:02:30;102003.09;;;10.59;100.00
29935;BME280;19905;53.370;-6.314;2023-02-14T10:05:08;101992.91;;;10.67;100.00
29935;BME280;19905;53.370;-6.314;2023-02-14T10:07:52;101993.34;;;10.75;100.00
29935;BME280;19905;53.370;-6.314;2023-02-14T10:10:27;101988.75;;;10.79;100.00
29935;BME280;19905;53.370;-6.314;2023-02-14T10:13:04;101999.75;;;10.87;100.00
29935;BME280;19905;53.370;-6.314;2023-02-14T10:15:37;102002.00;;;11.09;100.00
29935;BME280;19905;53.370;-6.314;2023-02-14T10:18:12;102002.25;;;11.34;100.00
29935;BME280;19905;53.370;-6.314;2023-02-14T10:20:45;101996.66;;;11.55;100.00
29935;BME280;19905;53.370;-6.314;2023-02-14T10:23:26;101997.97;;;11.62;100.00
29935;BME280;19905;53.370;-6.314;2023-02-14T10:26:00;101995.50;;;11.59;100.00
29935;BME280;19905;53.370;-6.314;2023-02-14T10:28:33;102005.34;;;11.57;100.00
29935;BME280;19905;53.370;-6.314;2023-02-14T10:31:19;101992.97;;;11.57;100.00
29935;BME280;19905;53.370;-6.314;2023-02-14T10:33:56;101993.19;;;11.68;100.00
29935;BME280;19905;53.370;-6.314;2023-02-14T10:36:42;101995.81;;;11.68;100.00
29935;BME280;19905;53.370;-6.314;2023-02-14T10:39:36;101999.66;;;11.63;100.00
29935;BME280;19905;53.370;-6.314;2023-02-14T10:42:18;102006.75;;;11.62;100.00
29935;BME280;19905;53.370;-6.314;2023-02-14T10:44:57;102006.00;;;11.60;100.00
29935;BME280;19905;53.370;-6.314;2023-02-14T10:47:37;102009.06;;;11.68;100.00
29935;BME280;19905;53.370;-6.314;2023-02-14T10:50:17;101991.28;;;11.70;100.00
29935;BME280;19905;53.370;-6.314;2023-02-14T10:52:54;101994.53;;;11.90;100.00
29935;BME280;19905;53.370;-6.314;2023-02-14T10:55:35;101990.47;;;11.99;100.00
29935;BME280;19905;53.370;-6.314;2023-02-14T10:58:09;101979.56;;;12.17;100.00
29935;BME280;19905;53.370;-6.314;2023-02-14T11:00:45;101977.59;;;12.21;100.00
29935;BME280;19905;53.370;-6.314;2023-02-14T11:03:17;101976.06;;;12.31;100.00
29935;BME280;19905;53.370;-6.314;2023-02-14T11:05:48;101985.34;;;12.24;100.00
29935;BME280;19905;53.370;-6.314;2023-02-14T11:08:24;101979.13;;;12.11;100.00
29935;BME280;19905;53.370;-6.314;2023-02-14T11:10:56;101978.44;;;12.07;100.00
29935;BME280;19905;53.370;-6.314;2023-02-14T11:13:31;101976.91;;;12.32;100.00
29935;BME280;19905;53.370;-6.314;2023-02-14T11:16:02;101965.72;;;12.41;100.00
29935;BME280;19905;53.370;-6.314;2023-02-14T11:18:32;101972.88;;;12.53;100.00
29935;BME280;19905;53.370;-6.314;2023-02-14T11:21:10;101962.63;;;12.34;100.00
29935;BME280;19905;53.370;-6.314;2023-02-14T11:23:40;101967.84;;;12.21;100.00
29935;BME280;19905;53.370;-6.314;2023-02-14T11:26:22;101975.53;;;12.12;100.00
29935;BME280;19905;53.370;-6.314;2023-02-14T11:28:55;101971.19;;;12.11;100.00
29935;BME280;19905;53.370;-6.314;2023-02-14T11:31:30;101973.59;;;12.14;100.00
29935;BME280;19905;53.370;-6.314;2023-02-14T11:34:01;101970.97;;;12.14;100.00
29935;BME280;19905;53.370;-6.314;2023-02-14T11:36:39;101978.16;;;12.12;100.00
29935;BME280;19905;53.370;-6.314;2023-02-14T11:39:20;101971.34;;;12.08;100.00
29935;BME280;19905;53.370;-6.314;2023-02-14T11:41:54;101974.41;;;11.87;100.00
29935;BME280;19905;53.370;-6.314;2023-02-14T11:44:26;101977.59;;;11.78;100.00
29935;BME280;19905;53.370;-6.314;2023-02-14T11:46:57;101982.63;;;11.83;100.00
29935;BME280;19905;53.370;-6.314;2023-02-14T11:49:53;101961.25;;;11.86;100.00
29935;BME280;19905;53.370;-6.314;2023-02-14T11:52:24;101956.59;;;12.04;100.00
29935;BME280;19905;53.370;-6.314;2023-02-14T11:54:56;101965.84;;;12.25;100.00
29935;BME280;19905;53.370;-6.314;2023-02-14T11:57:26;101950.09;;;12.36;100.00
29935;BME280;19905;53.370;-6.314;2023-02-14T12:00:02;101938.59;;;12.37;100.00
29935;BME280;19905;53.370;-6.314;2023-02-14T12:02:37;101936.56;;;12.41;100.00
29935;BME280;19905;53.370;-6.314;2023-02-14T12:05:16;101930.66;;;12.50;100.00
29935;BME280;19905;53.370;-6.314;2023-02-14T12:07:49;101915.00;;;12.47;100.00
29935;BME280;19905;53.370;-6.314;2023-02-14T12:10:24;101922.13;;;12.59;100.00
29935;BME280;19905;53.370;-6.314;2023-02-14T12:12:57;101918.19;;;12.52;100.00
29935;BME280;19905;53.370;-6.314;2023-02-14T12:15:32;101919.38;;;12.34;100.00
29935;BME280;19905;53.370;-6.314;2023-02-14T12:18:31;101908.97;;;12.31;100.00
29935;BME280;19905;53.370;-6.314;2023-02-14T12:21:12;101922.47;;;12.40;100.00
29935;BME280;19905;53.370;-6.314;2023-02-14T12:23:54;101910.78;;;12.30;100.00
29935;BME280;19905;53.370;-6.314;2023-02-14T12:26:29;101920.88;;;12.38;100.00
29935;BME280;19905;53.370;-6.314;2023-02-14T12:29:08;101910.38;;;12.36;100.00
29935;BME280;19905;53.370;-6.314;2023-02-14T12:31:41;101907.34;;;12.42;100.00
29935;BME280;19905;53.370;-6.314;2023-02-14T12:34:12;101875.53;;;12.69;100.00
29935;BME280;19905;53.370;-6.314;2023-02-14T12:36:49;101852.00;;;12.90;100.00
29935;BME280;19905;53.370;-6.314;2023-02-14T12:39:29;101825.91;;;13.10;100.00
29935;BME280;19905;53.370;-6.314;2023-02-14T12:42:11;101811.06;;;13.20;100.00
29935;BME280;19905;53.370;-6.314;2023-02-14T12:44:51;101796.94;;;13.32;100.00
29935;BME280;19905;53.370;-6.314;2023-02-14T12:47:31;101793.44;;;13.32;100.00
29935;BME280;19905;53.370;-6.314;2023-02-14T12:50:21;101796.63;;;13.37;100.00
29935;BME280;19905;53.370;-6.314;2023-02-14T12:56:03;101774.19;;;13.54;100.00
29935;BME280;19905;53.370;-6.314;2023-02-14T12:58:48;101787.03;;;13.60;100.00
29935;BME280;19905;53.370;-6.314;2023-02-14T13:04:43;101764.28;;;13.68;100.00
29935;BME280;19905;53.370;-6.314;2023-02-14T13:07:25;101759.13;;;13.78;100.00
29935;BME280;19905;53.370;-6.314;2023-02-14T13:10:13;101754.25;;;13.85;100.00
29935;BME280;19905;53.370;-6.314;2023-02-14T13:12:49;101748.59;;;13.89;100.00
29935;BME280;19905;53.370;-6.314;2023-02-14T13:15:26;101733.78;;;13.98;100.00
29935;BME280;19905;53.370;-6.314;2023-02-14T13:18:02;101769.44;;;14.07;100.00
29935;BME280;19905;53.370;-6.314;2023-02-14T13:20:40;101759.88;;;14.04;100.00
29935;BME280;19905;53.370;-6.314;2023-02-14T13:23:15;101747.44;;;14.05;100.00
29935;BME280;19905;53.370;-6.314;2023-02-14T13:25:50;101745.53;;;14.07;100.00
29935;BME280;19905;53.370;-6.314;2023-02-14T13:28:23;101748.94;;;14.20;100.00
29935;BME280;19905;53.370;-6.314;2023-02-14T13:30:54;101736.69;;;14.41;100.00
29935;BME280;19905;53.370;-6.314;2023-02-14T13:33:29;101738.72;;;14.73;100.00
29935;BME280;19905;53.370;-6.314;2023-02-14T13:36:05;101743.84;;;14.98;100.00
29935;BME280;19905;53.370;-6.314;2023-02-14T13:38:38;101734.78;;;15.12;100.00